LFLU 181730Z AUTO 36010KT 9999 FEW042/// BKN074/// ///TCU 24/16 Q1011

ElémentsDécodage
LFLU Station météo située sur l'aérodrome de VALENCE Chabeuil
181730Z émis le 18 du mois à 17h30 UTC
AUTO Bulletin édité par un automate
36010KT vent du 360°, 10 noeuds
9999 visibilité horizontale supérieure à 10 Km
FEW042/// nuages rares (1/8 à 2/8) à 4200 pieds
 type de nuage non observable
BKN074/// nuages morcelés (5/8 à 7/8) à 7400 pieds
 type de nuage non observable
///TCU élement non décodé
24/16 température 24°C, point de rosée 16°C
 soit une humidité relative de 61%
Q1011 la pression au niveau de la mer (QNH) est de 1011 hPa